Terminal Aerodrome Forecast
Issued by NWS Wakefield, VA

Home | Current Version | Previous Version | Text Only | Print | Product List | Glossary On
Versions: 1 2 3 4 5 6 7 8 9 10 11 12 13 14 15 16 17
000
FTUS41 KAKQ 212300
TAFSBY
TAF
KSBY 212320Z 2200/2224 VRB02KT P6SM SKC
     FM221100 07003KT P6SM BKN050
     FM221400 06008KT 4SM -RA BR SCT030 OVC050
     FM221800 06006KT 2SM -RA BR OVC015=

USA.gov is the U.S. government's official web portal to all federal, state and local government web resources and services.